createdAt,value
2022-10-02T00:02:18.252Z,2.72
2022-10-02T00:05:03.715Z,2.43
2022-10-02T00:07:56.022Z,2.50
2022-10-02T00:10:39.295Z,1.35
2022-10-02T00:13:08.706Z,1.80
2022-10-02T00:15:42.045Z,1.67
2022-10-02T00:18:14.943Z,2.77
2022-10-02T00:21:08.840Z,2.43
2022-10-02T00:23:46.310Z,4.07
2022-10-02T00:26:23.239Z,2.33
2022-10-02T00:29:11.538Z,1.60
2022-10-02T00:31:47.661Z,1.53
2022-10-02T00:35:11.830Z,2.10
2022-10-02T00:38:16.766Z,2.00
2022-10-02T00:41:10.356Z,1.30
2022-10-02T00:44:04.874Z,1.80
2022-10-02T00:46:38.021Z,1.80
2022-10-02T00:49:21.176Z,1.60
2022-10-02T00:52:16.092Z,1.80
2022-10-02T00:55:07.705Z,1.67
2022-10-02T00:57:43.490Z,1.37
2022-10-02T01:00:14.751Z,1.93
2022-10-02T01:03:08.888Z,1.53
2022-10-02T01:05:36.113Z,1.47
2022-10-02T01:08:03.076Z,1.27
2022-10-02T01:10:30.072Z,1.50
2022-10-02T01:12:58.210Z,1.57
2022-10-02T01:15:31.096Z,1.80
2022-10-02T01:17:58.403Z,1.70
2022-10-02T01:20:35.690Z,2.70
2022-10-02T01:23:18.116Z,1.63
2022-10-02T01:25:45.483Z,2.40
2022-10-02T01:28:12.791Z,1.33
2022-10-02T01:30:43.207Z,1.40
2022-10-02T01:33:12.611Z,1.77
2022-10-02T01:35:40.196Z,1.80
2022-10-02T01:38:11.084Z,1.57
2022-10-02T01:40:40.140Z,1.10
2022-10-02T01:43:17.524Z,1.53
2022-10-02T01:45:58.571Z,1.40
2022-10-02T01:48:42.066Z,1.50
2022-10-02T01:51:30.244Z,1.13
2022-10-02T01:54:18.310Z,1.47
2022-10-02T01:57:01.395Z,1.50
2022-10-02T01:59:37.122Z,2.20
2022-10-02T02:02:24.931Z,1.10
2022-10-02T02:05:18.847Z,1.40
2022-10-02T02:08:03.565Z,1.77
2022-10-02T02:10:46.574Z,1.50
2022-10-02T02:16:10.679Z,1.80
2022-10-02T02:18:50.652Z,2.00
2022-10-02T02:21:28.749Z,1.30
2022-10-02T02:23:57.929Z,1.30
2022-10-02T02:26:25.857Z,1.50
2022-10-02T02:28:58.353Z,2.63
2022-10-02T02:31:31.131Z,1.20
2022-10-02T02:36:35.698Z,2.23
2022-10-02T02:39:10.830Z,1.40
2022-10-02T02:41:55.919Z,1.73
2022-10-02T02:44:28.725Z,1.50
2022-10-02T02:49:59.617Z,1.70
2022-10-02T02:52:33.522Z,2.70
2022-10-02T02:55:20.251Z,1.60
2022-10-02T02:57:57.365Z,1.13
2022-10-02T03:00:25.501Z,1.10
2022-10-02T03:02:54.647Z,1.30
2022-10-02T03:05:24.268Z,1.57
2022-10-02T03:08:00.124Z,1.30
2022-10-02T03:10:29.847Z,0.90
2022-10-02T03:13:18.117Z,2.00
2022-10-02T03:16:22.102Z,1.20
2022-10-02T03:19:16.282Z,1.27
2022-10-02T03:21:54.878Z,1.23
2022-10-02T03:24:39.615Z,2.03
2022-10-02T03:27:15.641Z,0.90
2022-10-02T03:30:00.129Z,1.80
2022-10-02T03:32:28.312Z,1.23
2022-10-02T03:34:57.221Z,1.83
2022-10-02T03:37:25.904Z,1.30
2022-10-02T03:39:52.928Z,1.23
2022-10-02T03:42:26.290Z,1.90
2022-10-02T03:44:52.962Z,1.40
2022-10-02T03:47:19.555Z,1.87
2022-10-02T03:49:46.729Z,1.60
2022-10-02T03:52:16.956Z,2.03
2022-10-02T03:54:44.322Z,1.20
2022-10-02T03:57:22.982Z,2.30
2022-10-02T04:00:03.862Z,1.60
2022-10-02T04:02:37.639Z,1.47
2022-10-02T04:05:26.016Z,0.93
2022-10-02T04:07:57.504Z,1.43
2022-10-02T04:10:54.887Z,2.60
2022-10-02T04:13:35.425Z,1.73
2022-10-02T04:16:14.545Z,2.00
2022-10-02T04:18:57.402Z,1.40
2022-10-02T04:21:58.803Z,1.83
2022-10-02T04:24:31.896Z,1.30
2022-10-02T04:27:17.517Z,1.63
2022-10-02T04:29:51.811Z,2.10
2022-10-02T04:32:27.642Z,1.43
2022-10-02T04:34:54.855Z,1.90
2022-10-02T04:37:32.953Z,1.57
2022-10-02T04:40:39.152Z,1.20
2022-10-02T04:43:24.048Z,1.30
2022-10-02T04:46:09.824Z,1.50
2022-10-02T04:48:56.753Z,2.03
2022-10-02T04:52:01.109Z,2.13
2022-10-02T04:54:30.728Z,1.40
2022-10-02T04:57:02.261Z,1.03
2022-10-02T04:59:38.049Z,1.30
2022-10-02T05:02:27.360Z,1.40
2022-10-02T05:05:12.586Z,1.60
2022-10-02T05:08:06.079Z,2.07
2022-10-02T05:11:14.474Z,2.00
2022-10-02T05:13:55.825Z,2.03
2022-10-02T05:16:42.788Z,1.13
2022-10-02T05:19:33.685Z,1.40
2022-10-02T05:22:12.212Z,1.27
2022-10-02T05:25:00.350Z,2.03
2022-10-02T05:27:50.282Z,1.47
2022-10-02T05:30:19.528Z,1.20
2022-10-02T05:33:04.746Z,1.60
2022-10-02T05:36:00.710Z,1.20
2022-10-02T05:38:39.159Z,1.13
2022-10-02T05:41:18.122Z,1.17
2022-10-02T05:44:02.696Z,1.73
2022-10-02T05:46:42.391Z,1.87
2022-10-02T05:49:16.592Z,2.63
2022-10-02T05:51:59.440Z,1.90
2022-10-02T05:54:47.485Z,1.90
2022-10-02T05:57:32.062Z,2.03
2022-10-02T06:00:24.890Z,1.90
2022-10-02T06:03:00.509Z,1.73
2022-10-02T06:05:35.657Z,1.10
2022-10-02T06:08:05.917Z,2.43
2022-10-02T06:10:41.016Z,1.73
2022-10-02T06:13:46.365Z,1.27
2022-10-02T06:16:28.726Z,2.07
2022-10-02T06:19:01.777Z,1.48
2022-10-02T06:21:52.063Z,1.67
2022-10-02T06:24:34.687Z,1.97
2022-10-02T06:27:10.217Z,1.67
2022-10-02T06:29:43.911Z,1.60
2022-10-02T06:32:22.532Z,1.07
2022-10-02T06:34:50.316Z,2.60
2022-10-02T06:37:26.345Z,1.80
2022-10-02T06:40:18.716Z,1.77
2022-10-02T06:43:27.271Z,1.98
2022-10-02T06:46:08.693Z,1.40
2022-10-02T06:49:06.506Z,1.30
2022-10-02T06:52:02.087Z,1.67
2022-10-02T06:54:50.500Z,2.43
2022-10-02T06:57:48.754Z,2.00
2022-10-02T07:00:21.413Z,1.37
2022-10-02T07:03:29.861Z,1.58
2022-10-02T07:06:14.623Z,1.47
2022-10-02T07:09:04.547Z,1.37
2022-10-02T07:11:49.618Z,1.90
2022-10-02T07:14:54.859Z,1.20
2022-10-02T07:17:59.146Z,1.60
2022-10-02T07:20:30.097Z,1.57
2022-10-02T07:23:10.041Z,2.00
2022-10-02T07:25:39.906Z,1.77
2022-10-02T07:28:17.709Z,1.47
2022-10-02T07:31:08.410Z,1.10
2022-10-02T07:34:08.215Z,2.33
2022-10-02T07:36:53.200Z,1.40
2022-10-02T07:39:31.471Z,1.37
2022-10-02T07:42:12.274Z,1.27
2022-10-02T07:45:16.558Z,1.60
2022-10-02T07:48:00.465Z,1.53
2022-10-02T07:50:33.024Z,1.37
2022-10-02T07:53:05.866Z,1.38
2022-10-02T07:58:06.318Z,2.07
2022-10-02T08:00:40.614Z,2.10
2022-10-02T08:03:13.030Z,2.57
2022-10-02T08:05:44.682Z,1.42
2022-10-02T08:08:17.455Z,1.20
2022-10-02T08:13:20.695Z,1.30
2022-10-02T08:15:54.452Z,2.13
2022-10-02T08:18:34.756Z,1.57
2022-10-02T08:21:05.505Z,1.20
2022-10-02T08:23:45.203Z,1.63
2022-10-02T08:26:37.315Z,2.40
2022-10-02T08:29:10.150Z,1.67
2022-10-02T08:31:37.194Z,1.77
2022-10-02T08:34:19.250Z,2.03
2022-10-02T08:36:51.795Z,1.30
2022-10-02T08:39:50.725Z,1.40
2022-10-02T08:42:45.630Z,1.90
2022-10-02T08:45:27.497Z,1.90
2022-10-02T08:48:06.432Z,1.30
2022-10-02T08:50:48.396Z,1.60
2022-10-02T08:53:29.974Z,1.20
2022-10-02T08:56:03.364Z,1.17
2022-10-02T08:58:49.987Z,1.40
2022-10-02T09:01:25.707Z,1.50
2022-10-02T09:04:28.526Z,1.37
2022-10-02T09:07:17.173Z,1.77
2022-10-02T09:09:53.951Z,1.80
2022-10-02T09:12:42.154Z,2.07
2022-10-02T09:15:39.246Z,2.53
2022-10-02T09:18:42.738Z,1.30
2022-10-02T09:24:27.727Z,1.83
2022-10-02T09:27:12.520Z,1.57
2022-10-02T09:30:10.286Z,1.87
2022-10-02T09:32:49.664Z,1.60
2022-10-02T09:35:33.182Z,2.60
2022-10-02T09:38:30.159Z,1.83
2022-10-02T09:41:28.030Z,1.70
2022-10-02T09:44:19.774Z,1.13
2022-10-02T09:47:21.558Z,2.03
2022-10-02T09:50:06.739Z,1.20
2022-10-02T09:52:54.113Z,2.00
2022-10-02T09:55:43.031Z,1.40
2022-10-02T09:58:28.376Z,1.00
2022-10-02T10:01:07.249Z,1.50
2022-10-02T10:03:52.712Z,1.27
2022-10-02T10:06:28.833Z,2.47
2022-10-02T10:09:08.925Z,1.40
2022-10-02T10:11:56.627Z,1.50
2022-10-02T10:14:56.695Z,1.37
2022-10-02T10:17:39.358Z,1.97
2022-10-02T10:20:43.607Z,1.38
2022-10-02T10:23:25.656Z,1.17
2022-10-02T10:26:53.972Z,1.50
2022-10-02T10:29:58.133Z,2.43
2022-10-02T10:32:42.561Z,1.83
2022-10-02T10:35:38.832Z,1.30
2022-10-02T10:38:51.451Z,1.80
2022-10-02T10:41:39.935Z,1.40
2022-10-02T10:44:39.518Z,1.70
2022-10-02T10:47:23.964Z,1.20
2022-10-02T10:50:04.498Z,1.33
2022-10-02T10:53:04.508Z,1.97
2022-10-02T10:56:18.261Z,1.77
2022-10-02T10:59:16.759Z,2.73
2022-10-02T11:02:00.914Z,1.57
2022-10-02T11:04:59.087Z,2.00
2022-10-02T11:07:41.240Z,1.73
2022-10-02T11:10:31.235Z,1.38
2022-10-02T11:13:10.017Z,1.50
2022-10-02T11:15:39.917Z,1.60
2022-10-02T11:18:24.579Z,1.40
2022-10-02T11:21:10.871Z,1.30
2022-10-02T11:23:59.052Z,1.60
2022-10-02T11:26:34.984Z,1.60
2022-10-02T11:29:25.910Z,1.50
2022-10-02T11:32:26.630Z,1.40
2022-10-02T11:35:21.218Z,1.47
2022-10-02T11:38:09.890Z,1.67
2022-10-02T11:41:14.296Z,1.53
2022-10-02T11:44:09.186Z,1.33
2022-10-02T11:46:53.971Z,1.40
2022-10-02T11:49:34.758Z,1.10
2022-10-02T11:52:30.263Z,1.40
2022-10-02T11:55:11.548Z,1.00
2022-10-02T11:57:45.796Z,1.67
2022-10-02T12:00:34.535Z,1.30
2022-10-02T12:03:17.095Z,1.10
2022-10-02T12:06:03.247Z,1.50
2022-10-02T12:08:49.338Z,1.80
2022-10-02T12:11:23.418Z,1.40
2022-10-02T12:14:09.696Z,1.03
2022-10-02T12:16:45.698Z,1.43
2022-10-02T12:19:38.878Z,1.07
2022-10-02T12:22:43.070Z,1.57
2022-10-02T12:26:01.210Z,1.00
2022-10-02T12:28:46.645Z,1.20
2022-10-02T12:31:45.635Z,2.27
2022-10-02T12:34:40.339Z,1.47
2022-10-02T12:37:20.831Z,1.50
2022-10-02T12:39:59.573Z,1.10
2022-10-02T12:42:35.311Z,1.47
2022-10-02T12:45:21.877Z,1.00
2022-10-02T12:47:58.510Z,1.27
2022-10-02T12:50:53.812Z,1.03
2022-10-02T12:53:20.402Z,1.03
2022-10-02T12:56:25.684Z,0.80
2022-10-02T12:59:11.404Z,1.23
2022-10-02T13:02:59.723Z,1.10
2022-10-02T13:05:55.389Z,1.60
2022-10-02T13:09:08.158Z,1.60
2022-10-02T13:12:07.020Z,1.60
2022-10-02T13:15:02.138Z,2.10
2022-10-02T13:17:31.880Z,1.67
2022-10-02T13:20:28.638Z,1.20
2022-10-02T13:23:25.513Z,2.00
2022-10-02T13:26:26.678Z,2.03
2022-10-02T13:29:14.739Z,1.60
2022-10-02T13:32:06.381Z,1.13
2022-10-02T13:35:04.310Z,1.02
2022-10-02T13:37:54.154Z,1.10
2022-10-02T13:40:26.853Z,1.40
2022-10-02T13:43:38.662Z,1.88
2022-10-02T13:46:08.513Z,1.07
2022-10-02T13:48:40.833Z,1.50
2022-10-02T13:51:15.699Z,2.03
2022-10-02T13:54:14.701Z,1.63
2022-10-02T13:56:52.083Z,1.00
2022-10-02T13:59:33.830Z,0.90
2022-10-02T14:02:15.219Z,0.90
2022-10-02T14:04:47.642Z,1.10
2022-10-02T14:07:26.386Z,0.88
2022-10-02T14:10:28.710Z,1.00
2022-10-02T14:13:12.147Z,0.90
2022-10-02T14:15:57.481Z,1.00
2022-10-02T14:19:01.145Z,1.10
2022-10-02T14:21:51.156Z,0.70
2022-10-02T14:25:03.901Z,0.90
2022-10-02T14:28:02.452Z,1.10
2022-10-02T14:30:52.908Z,1.37
2022-10-02T14:33:38.468Z,0.80
2022-10-02T14:36:13.935Z,0.63
2022-10-02T14:39:05.162Z,0.90
2022-10-02T14:42:09.661Z,0.93
2022-10-02T14:44:46.131Z,1.30
2022-10-02T14:47:15.422Z,0.93
2022-10-02T14:50:16.759Z,1.20
2022-10-02T14:53:13.084Z,0.90
2022-10-02T14:55:58.215Z,1.10
2022-10-02T14:59:02.374Z,1.20
2022-10-02T15:01:30.037Z,0.93
2022-10-02T15:04:31.907Z,0.90
2022-10-02T15:07:08.148Z,0.83
2022-10-02T15:10:09.709Z,1.20
2022-10-02T15:12:36.572Z,1.23
2022-10-02T15:15:16.421Z,1.27
2022-10-02T15:18:20.304Z,1.40
2022-10-02T15:20:59.739Z,1.20
2022-10-02T15:23:45.392Z,1.20
2022-10-02T15:26:14.732Z,1.30
2022-10-02T15:29:05.976Z,1.03
2022-10-02T15:31:44.380Z,0.93
2022-10-02T15:34:20.000Z,1.00
2022-10-02T15:37:00.642Z,0.83
2022-10-02T15:39:46.903Z,1.03
2022-10-02T15:42:27.672Z,1.40
2022-10-02T15:45:13.713Z,1.93
2022-10-02T15:48:06.768Z,0.90
2022-10-02T15:53:05.704Z,1.10
2022-10-02T15:55:42.636Z,0.90
2022-10-02T15:58:19.531Z,1.30
2022-10-02T16:01:09.370Z,1.90
2022-10-02T16:03:53.621Z,1.00
2022-10-02T16:06:39.283Z,0.70
2022-10-02T16:09:37.135Z,0.97
2022-10-02T16:12:31.985Z,0.70
2022-10-02T16:15:13.227Z,0.83
2022-10-02T16:17:59.527Z,1.33
2022-10-02T16:20:26.187Z,1.20
2022-10-02T16:23:25.333Z,1.67
2022-10-02T16:26:15.702Z,2.83
2022-10-02T16:28:54.871Z,2.40
2022-10-02T16:31:43.077Z,0.80
2022-10-02T16:34:37.295Z,0.77
2022-10-02T16:37:19.043Z,0.70
2022-10-02T16:39:54.769Z,0.90
2022-10-02T16:42:50.905Z,1.00
2022-10-02T16:45:40.692Z,1.20
2022-10-02T16:48:17.954Z,1.40
2022-10-02T16:50:53.441Z,1.33
2022-10-02T16:53:37.190Z,1.40
2022-10-02T16:56:21.240Z,1.10
2022-10-02T16:59:01.775Z,1.10
2022-10-02T17:01:53.356Z,1.30
2022-10-02T17:05:13.151Z,1.30
2022-10-02T17:08:07.672Z,1.40
2022-10-02T17:10:46.474Z,1.80
2022-10-02T17:13:29.525Z,1.50
2022-10-02T17:16:09.198Z,1.50
2022-10-02T17:19:00.216Z,1.40
2022-10-02T17:21:39.263Z,1.50
2022-10-02T17:24:50.572Z,1.80
2022-10-02T17:27:35.537Z,1.67
2022-10-02T17:30:24.573Z,1.60
2022-10-02T17:33:13.748Z,2.83
2022-10-02T17:35:46.535Z,2.00
2022-10-02T17:38:29.260Z,1.63
2022-10-02T17:41:14.890Z,1.20
2022-10-02T17:44:00.531Z,1.10
2022-10-02T17:46:55.194Z,1.20
2022-10-02T17:49:50.335Z,1.00
2022-10-02T17:52:45.547Z,1.50
2022-10-02T17:55:57.354Z,1.30
2022-10-02T17:58:39.632Z,1.20
2022-10-02T18:01:24.781Z,1.50
2022-10-02T18:04:22.294Z,1.50
2022-10-02T18:07:41.708Z,1.77
2022-10-02T18:10:24.352Z,2.13
2022-10-02T18:12:55.643Z,2.17
2022-10-02T18:16:00.078Z,1.80
2022-10-02T18:18:50.938Z,2.50
2022-10-02T18:22:27.217Z,1.67
2022-10-02T18:25:19.257Z,1.33
2022-10-02T18:28:02.911Z,2.20
2022-10-02T18:30:58.807Z,1.33
2022-10-02T18:33:56.959Z,1.40
2022-10-02T18:36:50.699Z,1.60
2022-10-02T18:39:30.323Z,1.50
2022-10-02T18:42:16.927Z,1.70
2022-10-02T18:44:48.636Z,2.00
2022-10-02T18:47:52.730Z,1.97
2022-10-02T18:50:28.978Z,1.60
2022-10-02T18:53:43.364Z,1.70
2022-10-02T18:56:14.741Z,2.30
2022-10-02T18:58:47.458Z,2.43
2022-10-02T19:04:30.890Z,1.50
2022-10-02T19:07:17.711Z,3.10
2022-10-02T19:09:44.755Z,3.07
2022-10-02T19:12:23.462Z,3.57
2022-10-02T19:14:56.175Z,2.53
2022-10-02T19:19:51.281Z,3.33
2022-10-02T19:22:26.371Z,1.70
2022-10-02T19:24:58.038Z,1.87
2022-10-02T19:27:31.278Z,1.57
2022-10-02T19:30:03.971Z,1.67
2022-10-02T19:35:05.629Z,2.17
2022-10-02T19:37:34.963Z,2.43
2022-10-02T19:40:04.070Z,3.03
2022-10-02T19:42:39.516Z,2.10
2022-10-02T19:45:22.836Z,4.90
2022-10-02T19:47:57.365Z,4.10
2022-10-02T19:51:12.159Z,2.90
2022-10-02T19:53:50.830Z,3.07
2022-10-02T19:56:32.079Z,12.80
2022-10-02T19:59:11.448Z,12.27
2022-10-02T20:01:43.919Z,8.77
2022-10-02T20:04:17.670Z,5.32
2022-10-02T20:06:53.084Z,3.57
2022-10-02T20:09:34.264Z,3.33
2022-10-02T20:12:06.622Z,3.80
2022-10-02T20:14:42.371Z,3.13
2022-10-02T20:17:10.939Z,2.90
2022-10-02T20:19:43.830Z,3.40
2022-10-02T20:22:24.172Z,3.07
2022-10-02T20:25:02.220Z,3.30
2022-10-02T20:27:38.903Z,3.37
2022-10-02T20:30:17.306Z,6.60
2022-10-02T20:32:53.214Z,5.63
2022-10-02T20:35:37.672Z,8.83
2022-10-02T20:38:15.677Z,6.60
2022-10-02T20:40:48.430Z,5.17
2022-10-02T20:45:58.658Z,5.23
2022-10-02T20:49:07.631Z,6.07
2022-10-02T20:51:43.360Z,4.47
2022-10-02T20:54:17.949Z,3.90
2022-10-02T20:57:25.104Z,4.13
2022-10-02T21:00:17.059Z,3.33
2022-10-02T21:03:22.348Z,3.33
2022-10-02T21:06:22.100Z,4.27
2022-10-02T21:09:04.000Z,4.33
2022-10-02T21:12:27.689Z,3.70
2022-10-02T21:15:12.949Z,4.18
2022-10-02T21:17:58.268Z,3.83
2022-10-02T21:20:49.338Z,3.00
2022-10-02T21:23:36.333Z,2.87
2022-10-02T21:26:27.134Z,3.23
2022-10-02T21:29:12.622Z,2.50
2022-10-02T21:31:48.365Z,2.80
2022-10-02T21:34:41.792Z,2.50
2022-10-02T21:37:36.023Z,2.70
2022-10-02T21:43:19.255Z,1.70
2022-10-02T21:46:18.956Z,1.70
2022-10-02T21:49:27.352Z,1.60
2022-10-02T21:52:09.547Z,1.80
2022-10-02T21:55:05.909Z,2.35
2022-10-02T21:58:17.294Z,2.30
2022-10-02T22:01:18.321Z,1.50
2022-10-02T22:04:03.565Z,3.00
2022-10-02T22:06:39.689Z,2.80
2022-10-02T22:09:23.278Z,2.00
2022-10-02T22:12:01.146Z,1.80
2022-10-02T22:14:33.649Z,3.07
2022-10-02T22:17:12.340Z,3.70
2022-10-02T22:20:00.122Z,3.83
2022-10-02T22:22:43.297Z,6.80
2022-10-02T22:25:37.677Z,8.27
2022-10-02T22:28:20.681Z,5.60
2022-10-02T22:30:50.280Z,7.97
2022-10-02T22:33:55.348Z,4.20
2022-10-02T22:36:27.894Z,4.90
2022-10-02T22:39:15.717Z,4.18
2022-10-02T22:42:20.684Z,1.80
2022-10-02T22:45:01.917Z,1.20
2022-10-02T22:48:14.024Z,1.20
2022-10-02T22:51:23.863Z,1.43
2022-10-02T22:54:59.178Z,1.60
2022-10-02T23:02:24.332Z,5.47
2022-10-02T23:05:45.972Z,10.23
2022-10-02T23:09:17.571Z,13.20
2022-10-02T23:15:49.930Z,9.83
2022-10-02T23:18:58.175Z,9.50
2022-10-02T23:21:31.532Z,8.60
2022-10-02T23:24:18.520Z,8.33
2022-10-02T23:27:17.627Z,8.10
2022-10-02T23:29:50.933Z,8.10
2022-10-02T23:32:38.382Z,6.47
2022-10-02T23:35:31.891Z,5.90
2022-10-02T23:38:24.500Z,4.93
2022-10-02T23:41:37.234Z,5.07
2022-10-02T23:44:17.479Z,4.22
2022-10-02T23:47:09.093Z,3.53
2022-10-02T23:49:41.576Z,3.30
2022-10-02T23:52:14.534Z,2.70
2022-10-02T23:54:56.470Z,2.27
2022-10-02T23:57:41.242Z,2.60
